Time;durP1;ratioP1;P1;durP2;ratioP2;P2;SDS_P1;SDS_P2;PMS_P1;PMS_P2;Temp;Humidity;BMP_temperature;BMP_pressure;BME280_temperature;BME280_humidity;BME280_pressure;Samples;Min_cycle;Max_cycle;Signal;HPM_P1;HPM_P2
2023/05/22 00:00:07;;;;;;;2.95;1.38;;;19.60;99.90;;;;;;4970460;28;20236;-73
2023/05/22 00:02:37;;;;;;;1.17;1.05;;;19.60;99.90;;;;;;4970754;28;20589;-73
2023/05/22 00:05:06;;;;;;;1.38;1.27;;;19.60;99.90;;;;;;4969856;28;20209;-72
2023/05/22 00:07:34;;;;;;;1.17;1.00;;;19.60;99.90;;;;;;4971933;28;20237;-72
2023/05/22 00:10:03;;;;;;;1.48;1.15;;;19.60;99.90;;;;;;4969272;28;20219;-72
2023/05/22 00:12:32;;;;;;;1.23;1.10;;;19.60;99.90;;;;;;4971231;28;20304;-69
2023/05/22 00:15:00;;;;;;;1.23;0.88;;;19.60;99.90;;;;;;4968279;28;20207;-71
2023/05/22 00:17:29;;;;;;;1.33;1.10;;;19.60;99.90;;;;;;4970670;28;20211;-71
2023/05/22 00:20:02;;;;;;;1.25;1.02;;;19.50;99.90;;;;;;4970570;28;20231;-73
2023/05/22 00:22:34;;;;;;;1.65;1.52;;;19.50;99.90;;;;;;4969631;28;20209;-72
2023/05/22 00:25:02;;;;;;;1.63;1.52;;;19.50;99.90;;;;;;4970004;28;20203;-72
2023/05/22 00:27:32;;;;;;;1.65;1.17;;;19.40;99.90;;;;;;4970622;28;20203;-71
2023/05/22 00:30:00;;;;;;;2.08;1.67;;;19.40;99.90;;;;;;4968714;28;20228;-72
2023/05/22 00:32:28;;;;;;;1.35;1.25;;;19.40;99.90;;;;;;4970280;28;20238;-72
2023/05/22 00:34:56;;;;;;;1.50;1.05;;;19.40;99.90;;;;;;4968615;28;21281;-72
2023/05/22 00:37:25;;;;;;;1.77;1.05;;;19.40;99.90;;;;;;4967290;28;20212;-72
2023/05/22 00:39:53;;;;;;;1.10;1.00;;;19.30;99.90;;;;;;4967133;28;20263;-71
2023/05/22 00:42:21;;;;;;;1.35;1.25;;;19.20;99.90;;;;;;4968803;28;20680;-70
2023/05/22 00:44:50;;;;;;;1.05;0.95;;;19.20;99.90;;;;;;4969012;28;20221;-71
2023/05/22 00:47:18;;;;;;;1.10;1.00;;;19.20;99.90;;;;;;4967527;28;20207;-71
2023/05/22 00:49:46;;;;;;;1.30;1.20;;;19.10;99.90;;;;;;4969153;28;20257;-70
2023/05/22 00:52:16;;;;;;;1.40;1.30;;;19.20;99.90;;;;;;4971236;28;20207;-70
2023/05/22 00:54:45;;;;;;;0.82;0.82;;;19.10;99.90;;;;;;4967984;28;20208;-70
2023/05/22 00:57:13;;;;;;;1.77;1.67;;;19.20;99.90;;;;;;4969307;28;20591;-74
2023/05/22 00:59:41;;;;;;;1.80;1.23;;;19.10;99.90;;;;;;4970982;28;20249;-74
2023/05/22 01:02:12;;;;;;;1.13;0.70;;;19.00;99.90;;;;;;4968253;28;20588;-74
2023/05/22 01:04:41;;;;;;;1.10;0.80;;;19.00;99.90;;;;;;4970222;28;20266;-73
2023/05/22 01:07:09;;;;;;;1.38;1.15;;;19.00;99.90;;;;;;4970298;28;20211;-74
2023/05/22 01:09:37;;;;;;;1.42;1.15;;;19.00;99.90;;;;;;4971109;28;20218;-73
2023/05/22 01:12:15;;;;;;;1.70;1.05;;;19.10;99.90;;;;;;4972748;28;20577;-74
2023/05/22 01:14:52;;;;;;;1.27;1.17;;;19.10;99.90;;;;;;4959896;28;20202;-74
2023/05/22 01:17:27;;;;;;;1.45;1.35;;;19.00;99.90;;;;;;4970135;28;20217;-71
2023/05/22 01:20:09;;;;;;;1.45;1.33;;;19.00;99.90;;;;;;4971093;28;20307;-71
2023/05/22 01:23:19;;;;;;;1.23;0.90;;;19.00;99.90;;;;;;4969304;28;20207;-71
2023/05/22 01:26:02;;;;;;;0.90;0.80;;;18.90;99.90;;;;;;4968729;28;20223;-71
2023/05/22 01:29:08;;;;;;;0.82;0.80;;;18.90;99.90;;;;;;4968081;28;20211;-71
2023/05/22 01:31:40;;;;;;;2.08;1.25;;;18.90;99.90;;;;;;4968383;28;20210;-71
2023/05/22 01:34:12;;;;;;;0.95;0.85;;;18.90;99.90;;;;;;4968432;28;20228;-72
2023/05/22 01:36:41;;;;;;;2.30;1.70;;;18.90;99.90;;;;;;4968554;28;20202;-72
2023/05/22 01:39:10;;;;;;;1.17;1.05;;;18.80;99.90;;;;;;4966418;28;20222;-72
2023/05/22 01:41:38;;;;;;;1.23;1.10;;;18.80;99.90;;;;;;4967685;28;20227;-71
2023/05/22 01:44:06;;;;;;;1.65;1.10;;;18.70;99.90;;;;;;4969256;28;20206;-72
2023/05/22 01:46:34;;;;;;;2.08;1.08;;;18.70;99.90;;;;;;4950165;28;20207;-71
2023/05/22 01:49:03;;;;;;;1.20;1.10;;;18.80;99.90;;;;;;4970318;28;20226;-71
2023/05/22 01:51:40;;;;;;;1.17;1.08;;;18.70;99.90;;;;;;4968848;28;20222;-71
2023/05/22 01:54:16;;;;;;;1.27;1.10;;;18.60;99.90;;;;;;4965972;28;20218;-76
2023/05/22 01:56:53;;;;;;;4.15;1.20;;;18.60;99.90;;;;;;4969749;28;20680;-77
2023/05/22 01:59:29;;;;;;;1.90;0.93;;;18.60;99.90;;;;;;4991705;23;20254;-67
2023/05/22 02:02:03;;;;;;;2.67;1.58;;;18.50;99.90;;;;;;4968830;28;20231;-67
2023/05/22 02:04:36;;;;;;;0.95;0.88;;;18.50;99.90;;;;;;4972626;28;20678;-68
2023/05/22 02:07:05;;;;;;;2.08;1.88;;;18.40;99.90;;;;;;4965933;28;20616;-68
2023/05/22 02:09:34;;;;;;;1.58;0.85;;;18.40;99.90;;;;;;4966870;28;20226;-69
2023/05/22 02:12:03;;;;;;;1.55;1.45;;;18.40;99.90;;;;;;4971421;28;20617;-67
2023/05/22 02:14:31;;;;;;;1.90;1.50;;;18.30;99.90;;;;;;4969415;28;20217;-67
2023/05/22 02:17:02;;;;;;;1.30;1.10;;;18.30;99.90;;;;;;4973374;28;20209;-68
2023/05/22 02:19:30;;;;;;;1.63;1.52;;;18.30;99.90;;;;;;4974316;28;20227;-68
2023/05/22 02:21:59;;;;;;;2.35;2.03;;;18.30;99.90;;;;;;4985940;28;20226;-67
2023/05/22 02:24:28;;;;;;;1.98;1.83;;;18.30;99.90;;;;;;4974703;28;20198;-67
2023/05/22 02:26:56;;;;;;;1.55;1.45;;;18.40;99.90;;;;;;4976795;28;20215;-67
2023/05/22 02:29:25;;;;;;;0.80;0.80;;;18.40;99.90;;;;;;4978036;28;20232;-66
2023/05/22 02:31:54;;;;;;;1.05;0.95;;;18.30;99.90;;;;;;4976903;28;20207;-66
2023/05/22 02:34:22;;;;;;;1.30;1.20;;;18.20;99.90;;;;;;4972257;28;20218;-66
2023/05/22 02:36:50;;;;;;;1.80;1.00;;;18.20;99.90;;;;;;4973723;28;20597;-67
2023/05/22 02:39:19;;;;;;;1.45;1.02;;;18.10;99.90;;;;;;4982956;28;20229;-66
2023/05/22 02:41:47;;;;;;;0.80;0.80;;;18.10;99.90;;;;;;4983578;28;20783;-67
2023/05/22 02:44:15;;;;;;;1.15;1.05;;;18.10;99.90;;;;;;4975327;28;20749;-67
2023/05/22 02:46:42;;;;;;;1.60;1.50;;;18.00;99.90;;;;;;4975112;28;20203;-66
2023/05/22 02:49:10;;;;;;;2.35;1.40;;;18.00;99.90;;;;;;4981719;28;20221;-66
2023/05/22 02:51:38;;;;;;;2.00;1.60;;;18.00;99.90;;;;;;4978927;28;20210;-66
2023/05/22 02:54:06;;;;;;;2.03;1.83;;;18.00;99.90;;;;;;4983781;28;20230;-64
2023/05/22 02:56:36;;;;;;;2.08;1.95;;;17.90;99.90;;;;;;4979966;28;20213;-64
2023/05/22 02:59:03;;;;;;;1.40;1.02;;;17.80;99.90;;;;;;4971042;28;20205;-66
2023/05/22 03:01:31;;;;;;;1.08;0.98;;;17.90;99.90;;;;;;4978332;28;20221;-65
2023/05/22 03:04:00;;;;;;;2.65;1.20;;;17.90;99.90;;;;;;4978539;28;20218;-65
2023/05/22 03:06:28;;;;;;;2.28;1.45;;;17.90;99.90;;;;;;4973583;28;20215;-65
2023/05/22 03:08:56;;;;;;;1.73;1.50;;;17.90;99.90;;;;;;4968488;28;20210;-65
2023/05/22 03:11:24;;;;;;;0.90;0.80;;;17.90;99.90;;;;;;4968776;28;20207;-65
2023/05/22 03:13:53;;;;;;;3.00;1.70;;;17.90;99.90;;;;;;4974515;28;20217;-66
2023/05/22 03:16:21;;;;;;;1.30;1.10;;;17.90;99.90;;;;;;4979609;28;20210;-64
2023/05/22 03:18:50;;;;;;;1.73;1.20;;;17.80;99.90;;;;;;4980883;28;20721;-65
2023/05/22 03:21:18;;;;;;;2.33;2.13;;;17.80;99.90;;;;;;4978229;28;20222;-64
2023/05/22 03:23:48;;;;;;;1.45;1.23;;;17.80;99.90;;;;;;4978979;28;20203;-64
2023/05/22 03:26:16;;;;;;;1.55;0.90;;;17.70;99.90;;;;;;4978325;28;20210;-64
2023/05/22 03:28:43;;;;;;;1.55;1.10;;;17.70;99.90;;;;;;4976777;28;20285;-64
2023/05/22 03:31:14;;;;;;;1.33;0.90;;;17.70;99.90;;;;;;4973985;28;20230;-64
2023/05/22 03:33:42;;;;;;;1.40;1.30;;;17.80;99.90;;;;;;4971987;28;20265;-64
2023/05/22 03:36:10;;;;;;;2.83;1.63;;;17.70;99.90;;;;;;4974877;28;20585;-64
2023/05/22 03:38:38;;;;;;;1.85;1.65;;;17.70;99.90;;;;;;4981534;28;20655;-64
2023/05/22 03:41:06;;;;;;;1.70;1.10;;;17.80;99.90;;;;;;4971926;28;20284;-64
2023/05/22 03:43:34;;;;;;;3.20;1.75;;;17.80;99.90;;;;;;4970286;28;20214;-64
2023/05/22 03:46:02;;;;;;;1.88;1.40;;;17.70;99.90;;;;;;4970147;28;20635;-63
2023/05/22 03:48:33;;;;;;;3.40;1.38;;;17.80;99.90;;;;;;4981324;28;20206;-63
2023/05/22 03:51:01;;;;;;;1.65;1.55;;;17.80;99.90;;;;;;4971238;28;20226;-63
2023/05/22 03:53:29;;;;;;;0.98;0.98;;;17.80;99.90;;;;;;4980678;28;20221;-67
2023/05/22 03:55:58;;;;;;;1.73;1.55;;;17.80;99.90;;;;;;4975576;28;20217;-67
2023/05/22 03:58:26;;;;;;;1.15;1.08;;;17.80;99.90;;;;;;4971214;28;20209;-67
2023/05/22 04:00:57;;;;;;;1.40;1.30;;;17.80;99.90;;;;;;4973195;28;20283;-67
2023/05/22 04:03:25;;;;;;;1.42;1.33;;;17.80;99.90;;;;;;4983662;28;20229;-68
2023/05/22 04:05:55;;;;;;;1.63;1.52;;;17.80;99.90;;;;;;4977679;28;20218;-69
2023/05/22 04:08:23;;;;;;;2.65;1.55;;;17.80;99.90;;;;;;4972930;28;20577;-65
2023/05/22 04:10:53;;;;;;;1.58;1.45;;;17.80;99.90;;;;;;4970896;28;20239;-65
2023/05/22 04:13:21;;;;;;;1.20;1.10;;;17.80;99.90;;;;;;4967238;28;20295;-66
2023/05/22 04:15:49;;;;;;;1.48;1.27;;;17.90;99.90;;;;;;4977090;28;20215;-64
2023/05/22 04:18:17;;;;;;;1.38;1.27;;;17.90;99.90;;;;;;4968782;28;20588;-64
2023/05/22 04:20:45;;;;;;;2.67;2.47;;;17.90;99.90;;;;;;4967193;28;20686;-64
2023/05/22 04:23:14;;;;;;;1.20;1.10;;;17.90;99.90;;;;;;4976838;28;20218;-64
2023/05/22 04:25:42;;;;;;;2.45;2.25;;;17.90;99.90;;;;;;4977868;28;20222;-64
2023/05/22 04:28:11;;;;;;;1.55;1.45;;;17.90;99.90;;;;;;4971816;28;20199;-64
2023/05/22 04:30:39;;;;;;;2.28;0.80;;;17.90;99.90;;;;;;4971315;28;20226;-64
2023/05/22 04:33:08;;;;;;;2.10;1.33;;;17.90;99.90;;;;;;4977420;28;20210;-64
2023/05/22 04:35:36;;;;;;;1.40;1.30;;;17.90;99.90;;;;;;4973697;28;20312;-64
2023/05/22 04:38:05;;;;;;;1.27;1.17;;;17.90;99.90;;;;;;4984177;28;20214;-64
2023/05/22 04:40:36;;;;;;;1.52;1.42;;;17.90;99.90;;;;;;4975660;28;20229;-63
2023/05/22 04:43:05;;;;;;;1.10;1.00;;;17.90;99.90;;;;;;4974249;28;20243;-64
2023/05/22 04:45:34;;;;;;;1.35;1.25;;;17.90;99.90;;;;;;4975043;28;20214;-64
2023/05/22 04:48:03;;;;;;;1.60;1.48;;;18.10;99.90;;;;;;4969754;28;20568;-64
2023/05/22 04:50:31;;;;;;;0.98;0.98;;;18.10;99.90;;;;;;4970882;28;20321;-64
2023/05/22 04:53:02;;;;;;;1.20;1.10;;;18.20;99.90;;;;;;4977238;28;20200;-64
2023/05/22 04:55:32;;;;;;;1.25;1.15;;;18.20;99.90;;;;;;4968675;28;20216;-64
2023/05/22 04:58:02;;;;;;;1.25;1.10;;;18.20;99.90;;;;;;4971621;28;20213;-64
2023/05/22 05:00:29;;;;;;;1.55;1.35;;;18.30;99.90;;;;;;4973366;28;20241;-64
2023/05/22 05:02:59;;;;;;;3.53;1.10;;;18.30;99.90;;;;;;4975235;28;20696;-64
2023/05/22 05:05:27;;;;;;;1.48;1.38;;;18.40;99.90;;;;;;4978528;28;20683;-63
2023/05/22 05:07:55;;;;;;;1.88;1.58;;;18.40;99.90;;;;;;4974128;28;20221;-64
2023/05/22 05:10:23;;;;;;;2.40;2.03;;;18.40;99.90;;;;;;4969611;28;20230;-65
2023/05/22 05:12:51;;;;;;;1.38;1.20;;;18.50;99.90;;;;;;4971297;28;20210;-64
2023/05/22 05:15:21;;;;;;;1.27;1.00;;;18.60;99.90;;;;;;4967189;28;20708;-64
2023/05/22 05:17:49;;;;;;;1.65;1.55;;;18.60;99.90;;;;;;4971607;28;20290;-64
2023/05/22 05:20:17;;;;;;;1.40;1.30;;;18.70;99.90;;;;;;4971412;28;20226;-64
2023/05/22 05:22:45;;;;;;;1.83;1.25;;;18.70;99.90;;;;;;4973926;28;20219;-64
2023/05/22 05:25:13;;;;;;;1.25;1.15;;;18.80;99.90;;;;;;4972187;28;20241;-64
2023/05/22 05:27:41;;;;;;;2.40;1.38;;;18.80;99.90;;;;;;4975254;28;20572;-64
2023/05/22 05:30:10;;;;;;;1.20;1.10;;;18.80;99.90;;;;;;4976390;28;20222;-64
2023/05/22 05:32:39;;;;;;;2.38;1.15;;;18.90;99.90;;;;;;4973240;28;20198;-64
2023/05/22 05:35:08;;;;;;;2.40;1.77;;;19.00;99.90;;;;;;4968618;28;20203;-64
2023/05/22 05:37:36;;;;;;;1.33;1.25;;;19.10;99.90;;;;;;4975294;28;20211;-64
2023/05/22 05:40:06;;;;;;;1.85;1.08;;;19.20;99.90;;;;;;4972424;28;20234;-64
2023/05/22 05:42:34;;;;;;;1.33;1.23;;;19.30;99.90;;;;;;4972848;28;20234;-64
2023/05/22 05:45:01;;;;;;;1.38;1.20;;;19.30;99.90;;;;;;4972133;28;20208;-64
2023/05/22 05:47:29;;;;;;;1.35;1.25;;;19.50;99.90;;;;;;4971742;28;20215;-64
2023/05/22 05:49:59;;;;;;;1.10;0.90;;;19.50;99.90;;;;;;4972652;28;20230;-65
2023/05/22 05:52:31;;;;;;;1.90;1.77;;;19.60;99.90;;;;;;4975865;28;20546;-65
2023/05/22 05:54:59;;;;;;;2.25;2.15;;;19.70;99.90;;;;;;4972027;28;20299;-64
2023/05/22 05:57:28;;;;;;;1.98;1.77;;;19.80;99.90;;;;;;4971981;28;20211;-64
2023/05/22 05:59:56;;;;;;;1.63;1.05;;;19.80;99.90;;;;;;4971770;28;20245;-64
2023/05/22 06:02:24;;;;;;;1.30;1.20;;;19.80;99.90;;;;;;4971811;28;20753;-64
2023/05/22 06:04:52;;;;;;;1.20;1.10;;;19.90;99.90;;;;;;4971309;28;20217;-64
2023/05/22 06:08:01;;;;;;;0.98;0.98;;;20.00;99.90;;;;;;4971666;28;20587;-64
2023/05/22 06:10:30;;;;;;;1.55;1.27;;;20.00;99.90;;;;;;4964240;28;20270;-64
2023/05/22 06:12:58;;;;;;;1.67;0.85;;;20.10;99.90;;;;;;4970201;28;20214;-64
2023/05/22 06:15:26;;;;;;;0.95;0.95;;;20.10;99.90;;;;;;4972763;28;20233;-64
2023/05/22 06:17:54;;;;;;;0.70;0.70;;;20.30;99.90;;;;;;4973609;28;20216;-64
2023/05/22 06:20:23;;;;;;;2.28;1.25;;;20.40;99.90;;;;;;4968265;28;20228;-63
2023/05/22 06:22:51;;;;;;;1.13;1.00;;;20.60;99.90;;;;;;4974440;28;20233;-63
2023/05/22 06:25:19;;;;;;;2.13;2.03;;;20.70;99.90;;;;;;4974172;28;20204;-62
2023/05/22 06:27:49;;;;;;;1.77;0.95;;;20.90;99.90;;;;;;4957019;28;20223;-64
2023/05/22 06:30:17;;;;;;;1.67;1.58;;;21.00;99.90;;;;;;4962992;28;20297;-64
2023/05/22 06:33:04;;;;;;;1.30;1.20;;;21.10;99.90;;;;;;4970015;28;20299;-63
2023/05/22 06:35:33;;;;;;;1.83;1.73;;;21.10;99.90;;;;;;4968150;28;20230;-63
2023/05/22 06:38:00;;;;;;;1.17;1.08;;;21.10;99.90;;;;;;4968008;28;20259;-63
2023/05/22 06:40:29;;;;;;;1.60;1.50;;;21.10;99.90;;;;;;4974243;28;20259;-63
2023/05/22 06:42:58;;;;;;;1.92;1.83;;;21.10;99.90;;;;;;4975231;28;20231;-64
2023/05/22 06:45:26;;;;;;;1.45;1.35;;;21.10;99.90;;;;;;4975503;28;20676;-63
2023/05/22 06:47:55;;;;;;;1.60;1.17;;;21.10;99.90;;;;;;4975411;28;20208;-64
2023/05/22 06:50:23;;;;;;;1.27;1.17;;;21.20;99.90;;;;;;4975514;28;20771;-63
2023/05/22 06:52:51;;;;;;;1.70;1.27;;;21.20;99.90;;;;;;4975127;28;20673;-63
2023/05/22 06:55:19;;;;;;;1.52;1.20;;;21.30;99.90;;;;;;4975087;28;20212;-64
2023/05/22 06:57:46;;;;;;;1.60;1.50;;;21.20;99.90;;;;;;4975106;28;20212;-63
2023/05/22 07:00:17;;;;;;;1.40;1.30;;;21.30;99.90;;;;;;4974979;28;20239;-63
2023/05/22 07:02:45;;;;;;;2.10;1.05;;;21.40;99.90;;;;;;4975295;28;20633;-63
2023/05/22 07:05:12;;;;;;;1.05;1.05;;;21.50;99.90;;;;;;4975244;28;20212;-63
2023/05/22 07:07:40;;;;;;;1.13;1.02;;;21.60;99.90;;;;;;4974608;28;20664;-63
2023/05/22 07:10:09;;;;;;;0.90;0.85;;;21.80;99.90;;;;;;4975292;28;20247;-63
2023/05/22 07:12:37;;;;;;;1.15;1.05;;;21.90;99.90;;;;;;4974821;28;20208;-63
2023/05/22 07:15:09;;;;;;;1.83;1.73;;;22.00;99.90;;;;;;4975086;28;20255;-63
2023/05/22 07:17:40;;;;;;;0.82;0.82;;;22.00;99.90;;;;;;4974463;28;20216;-63
2023/05/22 07:20:09;;;;;;;1.05;1.02;;;21.90;99.90;;;;;;4974805;28;20726;-64
2023/05/22 07:22:37;;;;;;;1.50;1.40;;;21.90;99.90;;;;;;4974299;28;20211;-63
2023/05/22 07:25:06;;;;;;;1.75;1.65;;;22.00;99.90;;;;;;4974185;28;20717;-63
2023/05/22 07:27:34;;;;;;;1.60;1.05;;;21.90;99.90;;;;;;4974147;28;20239;-63
2023/05/22 07:30:02;;;;;;;1.17;1.08;;;22.00;99.90;;;;;;4967053;28;20774;-63
2023/05/22 07:32:30;;;;;;;0.80;0.80;;;22.00;99.90;;;;;;4974416;28;20215;-66
2023/05/22 07:34:59;;;;;;;2.25;1.75;;;22.00;99.90;;;;;;4974362;28;20698;-66
2023/05/22 07:37:27;;;;;;;2.05;1.85;;;21.90;99.90;;;;;;4967773;28;20263;-66
2023/05/22 07:39:55;;;;;;;3.22;1.45;;;21.90;99.90;;;;;;4973532;28;20232;-66
2023/05/22 07:42:24;;;;;;;2.15;1.27;;;21.80;99.90;;;;;;4974001;28;20209;-64
2023/05/22 07:44:52;;;;;;;1.52;0.98;;;22.00;99.90;;;;;;4974048;28;20262;-64
2023/05/22 07:47:20;;;;;;;1.10;1.00;;;22.10;99.90;;;;;;4974252;28;20204;-64
2023/05/22 07:49:48;;;;;;;1.00;0.90;;;22.20;99.90;;;;;;4973909;28;20773;-64
2023/05/22 07:52:18;;;;;;;1.98;1.88;;;22.40;99.90;;;;;;4973949;28;20204;-64
2023/05/22 07:54:46;;;;;;;1.77;1.67;;;22.50;99.90;;;;;;4974155;28;20209;-64
2023/05/22 07:57:15;;;;;;;1.77;1.27;;;22.60;99.90;;;;;;4974428;28;20216;-64
2023/05/22 07:59:44;;;;;;;1.70;1.52;;;22.80;99.90;;;;;;5074154;23;21367;-73
2023/05/22 08:02:12;;;;;;;2.45;2.25;;;23.10;99.90;;;;;;4984975;28;20649;-72
2023/05/22 08:04:41;;;;;;;1.30;1.17;;;23.20;99.90;;;;;;4984468;28;20221;-73
2023/05/22 08:07:09;;;;;;;2.03;1.92;;;23.20;99.90;;;;;;4982243;28;20212;-74
2023/05/22 08:09:38;;;;;;;1.70;1.60;;;23.30;99.90;;;;;;4981155;28;20229;-74
2023/05/22 08:12:07;;;;;;;1.40;1.30;;;23.40;99.90;;;;;;4973822;28;20213;-72
2023/05/22 08:14:36;;;;;;;1.88;1.30;;;23.40;99.90;;;;;;4974013;28;20207;-73
2023/05/22 08:17:04;;;;;;;1.77;1.67;;;23.60;99.90;;;;;;4974258;28;20232;-73
2023/05/22 08:19:32;;;;;;;1.33;1.23;;;23.70;99.90;;;;;;4978138;28;20228;-73
2023/05/22 08:22:00;;;;;;;0.80;0.70;;;23.70;99.90;;;;;;4982049;28;20264;-73
2023/05/22 08:24:29;;;;;;;1.60;1.50;;;24.00;99.90;;;;;;4973857;28;20236;-73
2023/05/22 08:26:59;;;;;;;1.10;1.10;;;24.00;99.90;;;;;;4981672;28;20298;-72
2023/05/22 08:29:28;;;;;;;1.25;1.10;;;24.00;99.90;;;;;;4980955;28;20674;-73
2023/05/22 08:31:56;;;;;;;1.25;1.15;;;24.00;99.90;;;;;;4973516;28;20235;-74
2023/05/22 08:34:25;;;;;;;2.15;1.95;;;24.10;99.90;;;;;;4981711;28;20260;-73
2023/05/22 08:36:53;;;;;;;1.50;1.40;;;24.20;99.90;;;;;;4981237;28;20644;-73
2023/05/22 08:39:21;;;;;;;1.55;1.45;;;24.30;99.90;;;;;;4973481;28;20216;-74
2023/05/22 08:41:49;;;;;;;1.42;1.33;;;24.50;99.90;;;;;;4989037;28;20209;-74
2023/05/22 08:44:19;;;;;;;1.02;0.95;;;24.70;99.90;;;;;;4978175;28;20659;-73
2023/05/22 08:46:48;;;;;;;1.40;1.30;;;24.70;99.90;;;;;;4984616;28;20214;-73
2023/05/22 08:49:17;;;;;;;3.45;2.25;;;24.90;99.90;;;;;;4984414;28;20267;-73
2023/05/22 08:51:48;;;;;;;2.17;1.95;;;24.90;99.90;;;;;;4983646;28;20304;-72
2023/05/22 08:54:21;;;;;;;2.13;1.65;;;25.10;99.90;;;;;;4978281;28;20203;-74
2023/05/22 08:56:51;;;;;;;3.47;1.50;;;25.20;99.90;;;;;;4975569;28;20221;-73
2023/05/22 08:59:25;;;;;;;1.10;1.00;;;25.50;99.90;;;;;;4972828;28;20237;-73
2023/05/22 09:01:54;;;;;;;1.50;1.40;;;25.70;99.90;;;;;;4939139;28;20222;-72
2023/05/22 09:04:24;;;;;;;2.70;1.40;;;25.70;99.90;;;;;;4940332;28;20224;-73
2023/05/22 09:06:53;;;;;;;1.75;1.65;;;25.80;99.90;;;;;;4934576;28;20625;-73
2023/05/22 09:09:21;;;;;;;1.50;1.40;;;26.00;99.90;;;;;;4939641;28;20207;-73
2023/05/22 09:11:50;;;;;;;2.15;1.13;;;26.20;99.90;;;;;;4952245;28;20236;-74
2023/05/22 09:14:18;;;;;;;1.60;1.50;;;26.50;99.90;;;;;;4934300;28;20207;-73
2023/05/22 09:16:49;;;;;;;1.52;1.42;;;26.50;99.90;;;;;;4942572;28;20207;-73
2023/05/22 09:19:17;;;;;;;1.95;1.83;;;26.60;99.90;;;;;;4946829;28;20297;-74
2023/05/22 09:21:46;;;;;;;1.20;1.00;;;26.80;99.90;;;;;;4940366;28;20207;-74
2023/05/22 09:24:38;;;;;;;1.33;1.17;;;26.90;99.90;;;;;;4951921;28;20226;-71
2023/05/22 09:27:07;;;;;;;1.40;1.30;;;27.00;99.90;;;;;;4945313;28;20290;-70
2023/05/22 09:29:48;;;;;;;1.27;1.15;;;27.10;99.90;;;;;;4938343;28;20234;-71
2023/05/22 09:32:18;;;;;;;1.73;1.33;;;27.10;99.90;;;;;;4938694;28;20204;-71
2023/05/22 09:34:46;;;;;;;1.00;0.73;;;27.10;99.90;;;;;;4936786;28;20585;-71
2023/05/22 09:37:14;;;;;;;2.17;1.17;;;27.20;99.90;;;;;;4938929;28;20708;-71
2023/05/22 09:39:44;;;;;;;1.55;1.30;;;27.40;99.90;;;;;;4945096;28;20219;-72
2023/05/22 09:42:14;;;;;;;1.10;1.00;;;27.70;99.90;;;;;;4933767;28;20596;-73
2023/05/22 09:44:43;;;;;;;1.48;1.38;;;27.90;99.90;;;;;;4933998;28;20762;-73
2023/05/22 09:47:11;;;;;;;1.40;1.30;;;28.00;99.90;;;;;;4941999;28;20215;-73
2023/05/22 09:49:43;;;;;;;1.45;1.35;;;28.00;99.90;;;;;;4933373;28;20227;-73
2023/05/22 09:52:12;;;;;;;1.88;1.77;;;28.10;99.90;;;;;;4941688;28;20207;-74
2023/05/22 09:54:48;;;;;;;2.33;2.13;;;28.30;99.90;;;;;;4941915;28;20290;-73
2023/05/22 09:57:18;;;;;;;1.10;0.90;;;28.40;99.90;;;;;;4939347;28;20286;-73
2023/05/22 09:59:52;;;;;;;2.58;1.50;;;28.50;99.90;;;;;;4942421;28;20265;-73
2023/05/22 10:02:22;;;;;;;1.25;1.10;;;28.50;99.90;;;;;;4986579;28;20212;-73
2023/05/22 10:04:52;;;;;;;1.35;1.25;;;28.50;99.90;;;;;;4980811;28;20317;-73
2023/05/22 10:07:22;;;;;;;1.50;1.40;;;29.00;99.90;;;;;;4991660;28;20202;-72
2023/05/22 10:09:56;;;;;;;1.58;1.48;;;29.30;99.90;;;;;;4990437;28;20720;-72
2023/05/22 10:12:26;;;;;;;1.30;1.20;;;29.40;98.70;;;;;;4971981;28;20716;-73
2023/05/22 10:14:55;;;;;;;1.25;1.15;;;29.40;99.70;;;;;;4989235;28;20205;-73
2023/05/22 10:17:23;;;;;;;1.20;1.10;;;29.70;98.70;;;;;;4983975;28;20260;-72
2023/05/22 10:19:54;;;;;;;1.23;1.15;;;30.00;99.90;;;;;;4991137;28;20225;-71
2023/05/22 10:22:24;;;;;;;1.60;1.23;;;30.20;97.90;;;;;;4978598;28;20198;-73
2023/05/22 10:24:53;;;;;;;1.90;1.42;;;30.00;98.20;;;;;;4972838;28;20317;-73
2023/05/22 10:27:21;;;;;;;1.42;1.33;;;29.90;99.00;;;;;;4985064;28;20618;-73
2023/05/22 10:29:55;;;;;;;1.55;1.45;;;29.60;99.30;;;;;;4983156;28;20253;-73
2023/05/22 10:32:32;;;;;;;1.17;1.08;;;29.70;98.10;;;;;;4980147;28;20237;-73
2023/05/22 10:35:15;;;;;;;1.85;1.75;;;29.70;98.90;;;;;;4963684;28;20202;-73
2023/05/22 10:37:48;;;;;;;2.10;1.65;;;29.70;99.00;;;;;;4980567;28;20212;-73
2023/05/22 10:40:21;;;;;;;3.33;1.80;;;29.70;97.90;;;;;;4979630;28;20285;-72
2023/05/22 10:42:49;;;;;;;1.58;1.48;;;30.20;97.80;;;;;;4971470;28;20673;-73
2023/05/22 10:45:17;;;;;;;2.00;1.30;;;30.50;97.30;;;;;;4976293;28;20222;-73
2023/05/22 10:47:45;;;;;;;1.40;1.30;;;30.80;98.20;;;;;;4975642;28;20660;-73
2023/05/22 10:50:14;;;;;;;1.83;1.47;;;30.90;97.80;;;;;;4983567;28;20280;-70
2023/05/22 10:52:42;;;;;;;1.63;1.53;;;31.10;97.30;;;;;;4975117;28;21194;-72
2023/05/22 10:55:11;;;;;;;1.50;1.40;;;31.40;96.80;;;;;;4987660;28;20627;-73
2023/05/22 10:57:39;;;;;;;1.53;1.43;;;31.20;97.10;;;;;;4979712;28;20673;-73
2023/05/22 11:00:10;;;;;;;1.47;1.33;;;31.50;96.00;;;;;;4983127;28;20661;-73
2023/05/22 11:02:42;;;;;;;3.10;1.60;;;31.70;96.10;;;;;;4987849;28;20624;-73
2023/05/22 11:05:37;;;;;;;4.00;1.90;;;31.60;96.40;;;;;;4991250;28;20656;-73
2023/05/22 11:08:12;;;;;;;1.93;1.53;;;32.00;95.70;;;;;;4983189;28;20632;-73
2023/05/22 11:10:54;;;;;;;1.57;1.47;;;32.30;95.90;;;;;;4990221;28;21041;-73
2023/05/22 11:13:26;;;;;;;2.60;1.57;;;32.30;95.70;;;;;;4979515;28;20631;-73
2023/05/22 11:15:56;;;;;;;1.97;1.77;;;32.00;97.50;;;;;;4977203;28;20745;-72
2023/05/22 11:18:28;;;;;;;1.50;1.40;;;32.10;95.60;;;;;;4987326;28;20642;-72
2023/05/22 11:20:59;;;;;;;2.07;1.90;;;32.00;95.40;;;;;;4984833;28;20671;-73
2023/05/22 11:23:27;;;;;;;3.20;2.20;;;32.10;95.00;;;;;;4988097;28;20646;-72
2023/05/22 11:25:55;;;;;;;1.27;1.17;;;32.50;95.00;;;;;;4985982;28;20646;-73
2023/05/22 11:28:23;;;;;;;1.53;1.30;;;32.50;95.50;;;;;;4994538;28;20638;-72
2023/05/22 11:30:53;;;;;;;1.63;1.40;;;33.00;95.00;;;;;;4977537;28;20653;-73
2023/05/22 11:33:23;;;;;;;2.03;1.93;;;33.10;94.30;;;;;;4975498;28;20643;-70
2023/05/22 11:35:53;;;;;;;4.40;1.73;;;33.20;94.70;;;;;;4990543;28;20620;-71
2023/05/22 11:38:23;;;;;;;3.27;1.87;;;33.60;93.80;;;;;;4974820;28;21024;-72
2023/05/22 11:40:51;;;;;;;1.67;1.30;;;33.60;94.10;;;;;;4982280;28;20668;-72
2023/05/22 11:43:30;;;;;;;2.30;1.73;;;33.80;93.90;;;;;;4978601;28;20635;-72
2023/05/22 11:46:01;;;;;;;1.33;1.23;;;33.70;93.70;;;;;;4984410;28;20638;-72
2023/05/22 11:48:30;;;;;;;2.37;1.90;;;33.30;93.00;;;;;;4981822;28;20632;-72
2023/05/22 11:50:58;;;;;;;2.00;1.73;;;33.20;92.60;;;;;;4982282;28;20650;-72
2023/05/22 11:53:29;;;;;;;1.33;1.23;;;32.80;94.20;;;;;;4974303;28;21195;-71
2023/05/22 11:56:01;;;;;;;1.60;1.50;;;32.70;93.60;;;;;;4982433;28;20630;-71
2023/05/22 11:58:29;;;;;;;2.17;1.90;;;32.50;94.20;;;;;;4974412;28;20625;-72
2023/05/22 12:00:58;;;;;;;1.47;1.37;;;32.60;94.40;;;;;;4973926;28;20679;-72
2023/05/22 12:03:26;;;;;;;1.67;1.57;;;32.30;93.50;;;;;;4975404;28;20638;-71
2023/05/22 12:05:55;;;;;;;3.43;2.27;;;32.10;94.40;;;;;;4974563;28;21119;-71
2023/05/22 12:08:24;;;;;;;2.33;2.13;;;31.90;93.90;;;;;;4993425;28;20685;-71
2023/05/22 12:10:54;;;;;;;1.40;1.30;;;32.00;95.00;;;;;;4985118;28;20732;-71
2023/05/22 12:13:23;;;;;;;1.37;1.27;;;32.40;94.20;;;;;;4980578;28;20628;-71
2023/05/22 12:15:53;;;;;;;1.23;1.13;;;32.60;93.90;;;;;;4974861;28;20632;-70
2023/05/22 12:18:21;;;;;;;2.07;1.93;;;32.70;94.10;;;;;;4974534;28;20630;-72
2023/05/22 12:20:53;;;;;;;2.00;1.90;;;32.80;94.40;;;;;;4973831;28;20679;-72
2023/05/22 12:23:23;;;;;;;2.10;1.83;;;32.80;93.10;;;;;;4973780;28;20622;-72
2023/05/22 12:26:02;;;;;;;2.03;1.87;;;32.80;93.70;;;;;;4973302;28;20626;-71
2023/05/22 12:28:31;;;;;;;2.17;1.63;;;32.80;94.90;;;;;;4973590;28;20665;-71
2023/05/22 12:31:00;;;;;;;1.33;1.20;;;32.60;93.60;;;;;;4973374;28;21014;-72
2023/05/22 12:33:28;;;;;;;1.37;1.27;;;32.60;93.90;;;;;;4979216;28;20657;-72
2023/05/22 12:35:57;;;;;;;1.23;1.13;;;32.40;93.20;;;;;;4973418;28;20645;-71
2023/05/22 12:38:27;;;;;;;1.00;1.00;;;32.10;93.30;;;;;;4973422;28;20640;-72
2023/05/22 12:40:55;;;;;;;1.27;1.17;;;31.70;93.60;;;;;;4973109;28;20664;-71
2023/05/22 12:43:26;;;;;;;1.53;1.43;;;31.40;93.30;;;;;;4975564;28;20633;-71
2023/05/22 12:45:54;;;;;;;1.50;1.40;;;31.30;93.60;;;;;;4972929;28;21015;-71
2023/05/22 12:48:22;;;;;;;1.83;1.57;;;31.20;93.90;;;;;;4980812;28;20633;-72
2023/05/22 12:50:50;;;;;;;2.10;1.87;;;31.40;94.30;;;;;;4981075;28;21058;-72
2023/05/22 12:53:18;;;;;;;1.73;1.63;;;31.50;94.00;;;;;;4973058;28;21029;-72
2023/05/22 12:55:46;;;;;;;2.10;1.67;;;31.50;93.80;;;;;;4980047;28;20623;-72
2023/05/22 12:58:14;;;;;;;1.83;1.13;;;31.70;93.60;;;;;;4984122;28;20668;-72
2023/05/22 13:00:43;;;;;;;1.30;1.20;;;32.00;93.40;;;;;;4992333;28;20659;-72